createdAt,value
2023-03-29T00:00:31.366Z,6.34
2023-03-29T00:02:59.360Z,6.31
2023-03-29T00:05:27.316Z,6.29
2023-03-29T00:08:01.685Z,6.31
2023-03-29T00:10:32.133Z,6.28
2023-03-29T00:13:00.147Z,6.24
2023-03-29T00:15:28.040Z,6.24
2023-03-29T00:17:55.789Z,6.22
2023-03-29T00:20:23.579Z,6.21
2023-03-29T00:22:51.263Z,6.22
2023-03-29T00:25:19.196Z,6.23
2023-03-29T00:27:48.236Z,6.22
2023-03-29T00:30:16.435Z,6.21
2023-03-29T00:32:44.667Z,6.20
2023-03-29T00:35:12.970Z,6.18
2023-03-29T00:37:41.268Z,6.16
2023-03-29T00:40:12.707Z,6.12
2023-03-29T00:42:40.568Z,6.11
2023-03-29T00:45:18.859Z,6.09
2023-03-29T00:47:49.667Z,6.09
2023-03-29T00:50:22.371Z,6.06
2023-03-29T00:52:55.861Z,6.02
2023-03-29T00:55:26.532Z,5.96
2023-03-29T00:57:56.884Z,5.92
2023-03-29T01:00:31.826Z,5.88
2023-03-29T01:03:02.612Z,5.85
2023-03-29T01:05:33.450Z,5.79
2023-03-29T01:08:06.645Z,5.73
2023-03-29T01:10:41.072Z,5.70
2023-03-29T01:13:12.426Z,5.68
2023-03-29T01:15:45.042Z,5.70
2023-03-29T01:18:13.970Z,5.67
2023-03-29T01:20:52.400Z,5.65
2023-03-29T01:23:41.017Z,5.66
2023-03-29T01:26:18.202Z,5.65
2023-03-29T01:28:52.641Z,5.63
2023-03-29T01:31:25.565Z,5.63
2023-03-29T01:33:59.808Z,5.61
2023-03-29T01:36:34.969Z,5.62
2023-03-29T01:39:07.268Z,5.61
2023-03-29T01:41:45.152Z,5.60
2023-03-29T01:44:19.605Z,5.59
2023-03-29T01:46:48.870Z,5.60
2023-03-29T01:49:24.714Z,5.59
2023-03-29T01:51:56.162Z,5.58
2023-03-29T01:54:29.170Z,5.58
2023-03-29T01:56:59.325Z,5.55
2023-03-29T01:59:32.248Z,5.52
2023-03-29T02:02:03.316Z,5.47
2023-03-29T02:04:35.051Z,5.45
2023-03-29T02:07:06.014Z,5.46
2023-03-29T02:09:37.162Z,5.44
2023-03-29T02:12:07.994Z,5.45
2023-03-29T02:14:38.240Z,5.48
2023-03-29T02:17:18.202Z,5.50
2023-03-29T02:19:50.212Z,5.51
2023-03-29T02:22:26.437Z,5.50
2023-03-29T02:24:59.091Z,5.53
2023-03-29T02:27:28.924Z,5.54
2023-03-29T02:29:58.124Z,5.53
2023-03-29T02:32:32.131Z,5.52
2023-03-29T02:35:04.487Z,5.45
2023-03-29T02:37:36.330Z,5.48
2023-03-29T02:40:12.455Z,5.48
2023-03-29T02:42:40.959Z,5.40
2023-03-29T02:45:14.093Z,5.51
2023-03-29T02:47:46.192Z,5.56
2023-03-29T02:50:14.261Z,5.56
2023-03-29T02:52:47.059Z,5.58
2023-03-29T02:55:18.659Z,5.63
2023-03-29T02:57:46.590Z,5.67
2023-03-29T03:00:20.014Z,5.70
2023-03-29T03:02:50.814Z,5.73
2023-03-29T03:05:19.482Z,5.75
2023-03-29T03:07:47.410Z,5.78
2023-03-29T03:10:15.897Z,5.79
2023-03-29T03:12:43.690Z,5.74
2023-03-29T03:15:12.023Z,5.77
2023-03-29T03:17:42.223Z,5.79
2023-03-29T03:20:13.707Z,5.80
2023-03-29T03:22:45.537Z,5.83
2023-03-29T03:25:13.377Z,5.84
2023-03-29T03:27:41.278Z,5.84
2023-03-29T03:30:10.940Z,5.85
2023-03-29T03:32:51.969Z,5.84
2023-03-29T03:35:42.932Z,5.82
2023-03-29T03:38:10.804Z,5.83
2023-03-29T03:40:38.559Z,5.84
2023-03-29T03:43:06.759Z,5.85
2023-03-29T03:45:34.857Z,5.88
2023-03-29T03:48:12.378Z,5.91
2023-03-29T03:50:50.397Z,5.92
2023-03-29T03:53:18.938Z,5.87
2023-03-29T03:56:08.986Z,5.86
2023-03-29T03:58:47.545Z,5.86
2023-03-29T04:01:17.003Z,5.88
2023-03-29T04:03:55.429Z,5.90
2023-03-29T04:06:25.353Z,5.93
2023-03-29T04:09:22.744Z,5.95
2023-03-29T04:12:01.447Z,5.97
2023-03-29T04:14:31.645Z,5.97
2023-03-29T04:17:06.439Z,5.98
2023-03-29T04:19:56.359Z,6.00
2023-03-29T04:22:25.234Z,6.01
2023-03-29T04:24:53.149Z,5.97
2023-03-29T04:27:39.938Z,6.03
2023-03-29T04:30:18.817Z,6.05
2023-03-29T04:33:09.546Z,6.07
2023-03-29T04:35:40.974Z,6.07
2023-03-29T04:38:12.835Z,6.09
2023-03-29T04:40:42.034Z,6.11
2023-03-29T04:43:14.412Z,6.10
2023-03-29T04:45:50.297Z,6.14
2023-03-29T04:48:36.606Z,6.13
2023-03-29T04:51:07.213Z,6.15
2023-03-29T04:53:35.231Z,6.15
2023-03-29T04:56:03.057Z,6.17
2023-03-29T04:58:53.625Z,6.18
2023-03-29T05:01:22.350Z,6.20
2023-03-29T05:03:57.770Z,6.23
2023-03-29T05:06:33.291Z,6.24
2023-03-29T05:09:01.208Z,6.25
2023-03-29T05:11:34.184Z,6.21
2023-03-29T05:14:03.359Z,6.28
2023-03-29T05:16:35.648Z,6.31
2023-03-29T05:19:03.569Z,6.34
2023-03-29T05:21:35.301Z,6.35
2023-03-29T05:24:07.429Z,6.42
2023-03-29T05:26:58.719Z,6.47
2023-03-29T05:29:28.898Z,6.55
2023-03-29T05:32:08.441Z,6.59
2023-03-29T05:34:37.009Z,6.63
2023-03-29T05:37:06.101Z,6.67
2023-03-29T05:39:44.340Z,6.71
2023-03-29T05:42:15.458Z,6.78
2023-03-29T05:45:10.543Z,6.89
2023-03-29T05:47:38.491Z,6.92
2023-03-29T05:50:10.248Z,6.97
2023-03-29T05:52:41.122Z,7.01
2023-03-29T05:55:10.293Z,7.06
2023-03-29T05:57:38.673Z,7.10
2023-03-29T06:00:17.679Z,7.11
2023-03-29T06:02:45.696Z,7.14
2023-03-29T06:05:13.877Z,7.18
2023-03-29T06:07:58.074Z,7.19
2023-03-29T06:10:45.435Z,7.21
2023-03-29T06:13:37.192Z,7.25
2023-03-29T06:16:05.701Z,7.26
2023-03-29T06:18:33.538Z,7.28
2023-03-29T06:21:03.439Z,7.32
2023-03-29T06:23:33.359Z,7.35
2023-03-29T06:26:01.503Z,7.36
2023-03-29T06:28:29.780Z,7.39
2023-03-29T06:33:34.345Z,7.50
2023-03-29T06:36:16.231Z,7.59
2023-03-29T06:38:47.137Z,7.70
2023-03-29T06:41:24.790Z,7.81
2023-03-29T06:44:07.426Z,7.89
2023-03-29T06:46:39.739Z,7.97
2023-03-29T06:49:08.921Z,8.03
2023-03-29T06:52:08.911Z,8.12
2023-03-29T06:54:38.836Z,8.21
2023-03-29T06:57:07.981Z,8.21
2023-03-29T06:59:35.769Z,8.26
2023-03-29T07:02:25.297Z,8.29
2023-03-29T07:04:59.125Z,8.30
2023-03-29T07:07:43.973Z,8.43
2023-03-29T07:10:32.101Z,8.54
2023-03-29T07:13:33.058Z,8.59
2023-03-29T07:16:03.944Z,8.55
2023-03-29T07:18:39.965Z,8.56
2023-03-29T07:21:09.182Z,8.63
2023-03-29T07:23:37.471Z,8.74
2023-03-29T07:26:08.485Z,8.84
2023-03-29T07:28:37.816Z,8.90
2023-03-29T07:31:07.162Z,9.00
2023-03-29T07:33:40.839Z,9.13
2023-03-29T07:36:10.430Z,9.22
2023-03-29T07:38:38.769Z,9.28
2023-03-29T07:41:16.741Z,9.33
2023-03-29T07:44:09.107Z,9.50
2023-03-29T07:46:37.343Z,9.62
2023-03-29T07:49:05.561Z,9.75
2023-03-29T07:51:34.186Z,9.81
2023-03-29T07:54:07.785Z,9.90
2023-03-29T07:56:50.983Z,9.88
2023-03-29T07:59:39.554Z,9.80
2023-03-29T08:02:22.217Z,9.72
2023-03-29T08:04:54.251Z,9.71
2023-03-29T08:07:44.122Z,9.75
2023-03-29T08:10:19.543Z,9.80
2023-03-29T08:13:09.670Z,9.78
2023-03-29T08:15:50.182Z,9.77
2023-03-29T08:18:38.492Z,9.70
2023-03-29T08:21:06.633Z,9.72
2023-03-29T08:23:34.361Z,9.71
2023-03-29T08:26:11.416Z,9.75
2023-03-29T08:28:41.533Z,9.82
2023-03-29T08:31:11.027Z,9.90
2023-03-29T08:33:42.821Z,10.05
2023-03-29T08:36:40.219Z,10.23
2023-03-29T08:39:19.617Z,10.33
2023-03-29T08:42:06.903Z,10.45
2023-03-29T08:44:50.008Z,10.61
2023-03-29T08:47:26.310Z,10.72
2023-03-29T08:49:57.939Z,10.85
2023-03-29T08:52:37.874Z,10.90
2023-03-29T08:55:29.858Z,11.05
2023-03-29T08:58:19.462Z,11.14
2023-03-29T09:00:52.910Z,11.20
2023-03-29T09:03:23.439Z,11.42
2023-03-29T09:05:59.364Z,11.61
2023-03-29T09:08:27.654Z,11.75
2023-03-29T09:11:11.950Z,11.92
2023-03-29T09:13:49.181Z,11.99
2023-03-29T09:16:22.780Z,12.18
2023-03-29T09:19:02.989Z,12.45
2023-03-29T09:21:36.553Z,12.69
2023-03-29T09:24:21.750Z,12.76
2023-03-29T09:27:12.121Z,13.06
2023-03-29T09:29:56.675Z,13.20
2023-03-29T09:32:48.197Z,13.52
2023-03-29T09:35:22.364Z,13.81
2023-03-29T09:37:53.410Z,13.74
2023-03-29T09:40:25.360Z,13.76
2023-03-29T09:43:05.467Z,13.96
2023-03-29T09:45:33.500Z,14.05
2023-03-29T09:48:11.202Z,14.22
2023-03-29T09:50:43.023Z,14.18
2023-03-29T09:53:12.359Z,14.32
2023-03-29T09:55:48.993Z,14.24
2023-03-29T09:58:32.959Z,14.25
2023-03-29T10:01:03.163Z,14.41
2023-03-29T10:03:34.885Z,14.40
2023-03-29T10:06:14.891Z,14.49
2023-03-29T10:08:57.577Z,14.58
2023-03-29T10:11:31.991Z,14.43
2023-03-29T10:14:03.998Z,14.50
2023-03-29T10:16:37.209Z,14.42
2023-03-29T10:19:19.565Z,14.27
2023-03-29T10:21:49.889Z,14.54
2023-03-29T10:24:20.717Z,14.68
2023-03-29T10:26:51.787Z,14.69
2023-03-29T10:29:19.631Z,14.88
2023-03-29T10:31:47.990Z,15.08
2023-03-29T10:34:18.570Z,15.36
2023-03-29T10:36:52.156Z,15.48
2023-03-29T10:39:20.473Z,15.55
2023-03-29T10:41:53.158Z,15.58
2023-03-29T10:44:32.798Z,15.60
2023-03-29T10:47:09.838Z,15.73
2023-03-29T10:49:47.079Z,15.72
2023-03-29T10:52:17.219Z,15.60
2023-03-29T10:54:45.582Z,15.26
2023-03-29T10:57:17.015Z,15.32
2023-03-29T10:59:53.708Z,15.53
2023-03-29T11:03:01.452Z,15.56
2023-03-29T11:05:36.785Z,15.56
2023-03-29T11:08:29.021Z,15.45
2023-03-29T11:11:08.769Z,15.25
2023-03-29T11:13:45.719Z,14.84
2023-03-29T11:16:28.148Z,14.49
2023-03-29T11:19:27.138Z,14.81
2023-03-29T11:22:06.646Z,14.86
2023-03-29T11:24:48.059Z,14.64
2023-03-29T11:27:27.349Z,14.27
2023-03-29T11:30:07.714Z,14.28
2023-03-29T11:32:47.033Z,14.22
2023-03-29T11:35:31.639Z,14.12
2023-03-29T11:38:09.165Z,14.10
2023-03-29T11:40:47.825Z,14.13
2023-03-29T11:43:20.514Z,14.67
2023-03-29T11:45:54.913Z,14.91
2023-03-29T11:48:26.779Z,15.05
2023-03-29T11:50:59.906Z,15.18
2023-03-29T11:53:36.365Z,14.91
2023-03-29T11:56:13.176Z,14.87
2023-03-29T11:58:45.792Z,14.89
2023-03-29T12:01:19.858Z,14.92
2023-03-29T12:03:52.365Z,14.92
2023-03-29T12:06:24.741Z,15.12
2023-03-29T12:08:57.289Z,15.31
2023-03-29T12:11:30.557Z,15.40
2023-03-29T12:14:04.629Z,15.25
2023-03-29T12:16:37.077Z,15.31
2023-03-29T12:19:11.633Z,15.26
2023-03-29T12:21:42.390Z,15.10
2023-03-29T12:24:14.414Z,14.64
2023-03-29T12:26:58.367Z,14.34
2023-03-29T12:29:52.353Z,14.14
2023-03-29T12:32:36.857Z,14.01
2023-03-29T12:35:34.410Z,14.03
2023-03-29T12:38:23.232Z,14.05
2023-03-29T12:41:19.090Z,13.97
2023-03-29T12:44:07.770Z,13.64
2023-03-29T12:46:42.120Z,13.60
2023-03-29T12:49:14.365Z,13.49
2023-03-29T12:51:43.892Z,13.64
2023-03-29T12:54:16.907Z,13.66
2023-03-29T12:56:58.622Z,14.12
2023-03-29T12:59:36.832Z,14.48
2023-03-29T13:02:34.737Z,14.62
2023-03-29T13:05:04.829Z,14.89
2023-03-29T13:07:45.651Z,15.12
2023-03-29T13:10:36.605Z,15.02
2023-03-29T13:13:19.911Z,15.36
2023-03-29T13:15:48.712Z,15.61
2023-03-29T13:18:41.442Z,15.72
2023-03-29T13:21:18.696Z,15.85
2023-03-29T13:23:57.009Z,16.04
2023-03-29T13:26:44.363Z,16.13
2023-03-29T13:29:49.291Z,16.08
2023-03-29T13:32:32.723Z,16.04
2023-03-29T13:35:08.176Z,16.07
2023-03-29T13:37:48.720Z,15.87
2023-03-29T13:40:34.376Z,15.78
2023-03-29T13:43:09.862Z,15.68
2023-03-29T13:45:40.455Z,15.57
2023-03-29T13:48:23.332Z,15.37
2023-03-29T13:50:56.391Z,15.25
2023-03-29T13:53:30.568Z,15.37
2023-03-29T13:55:59.841Z,15.36
2023-03-29T13:58:36.411Z,15.24
2023-03-29T14:01:14.356Z,15.04
2023-03-29T14:03:45.816Z,14.97
2023-03-29T14:06:16.789Z,15.04
2023-03-29T14:08:45.719Z,14.83
2023-03-29T14:11:22.977Z,14.67
2023-03-29T14:13:54.031Z,14.49
2023-03-29T14:16:23.574Z,14.39
2023-03-29T14:18:52.802Z,14.28
2023-03-29T14:21:21.633Z,14.07
2023-03-29T14:23:56.226Z,13.88
2023-03-29T14:26:25.967Z,13.78
2023-03-29T14:28:56.452Z,13.72
2023-03-29T14:31:30.410Z,13.66
2023-03-29T14:33:59.955Z,13.49
2023-03-29T14:36:29.212Z,13.47
2023-03-29T14:39:02.115Z,13.38
2023-03-29T14:41:31.625Z,13.43
2023-03-29T14:44:00.243Z,13.50
2023-03-29T14:46:30.118Z,13.57
2023-03-29T14:48:58.406Z,13.57
2023-03-29T14:51:30.216Z,13.63
2023-03-29T14:53:59.358Z,13.68
2023-03-29T14:56:28.133Z,13.79
2023-03-29T14:58:57.923Z,13.87
2023-03-29T15:01:27.821Z,13.93
2023-03-29T15:04:02.507Z,14.04
2023-03-29T15:06:31.552Z,14.16
2023-03-29T15:09:05.954Z,14.15
2023-03-29T15:11:35.114Z,14.23
2023-03-29T15:14:05.753Z,14.25
2023-03-29T15:16:34.349Z,14.24
2023-03-29T15:19:04.391Z,14.24
2023-03-29T15:21:35.400Z,14.24
2023-03-29T15:24:04.727Z,14.35
2023-03-29T15:26:34.185Z,14.44
2023-03-29T15:29:08.022Z,14.39
2023-03-29T15:31:37.306Z,14.42
2023-03-29T15:34:09.270Z,14.44
2023-03-29T15:36:42.296Z,14.52
2023-03-29T15:39:13.089Z,14.47
2023-03-29T15:41:41.385Z,14.35
2023-03-29T15:44:09.334Z,14.32
2023-03-29T15:46:37.366Z,14.29
2023-03-29T15:49:07.298Z,14.30
2023-03-29T15:51:35.140Z,14.25
2023-03-29T15:54:02.954Z,14.31
2023-03-29T15:56:32.928Z,14.35
2023-03-29T15:59:01.666Z,14.38
2023-03-29T16:01:35.491Z,14.34
2023-03-29T16:04:04.343Z,14.33
2023-03-29T16:06:34.466Z,14.28
2023-03-29T16:09:02.223Z,14.20
2023-03-29T16:11:30.055Z,14.14
2023-03-29T16:13:58.183Z,14.06
2023-03-29T16:16:27.048Z,14.00
2023-03-29T16:18:54.779Z,13.91
2023-03-29T16:21:24.298Z,13.79
2023-03-29T16:23:53.461Z,13.72
2023-03-29T16:26:21.774Z,13.63
2023-03-29T16:28:49.616Z,13.52
2023-03-29T16:31:17.364Z,13.46
2023-03-29T16:33:45.161Z,13.39
2023-03-29T16:36:13.092Z,13.33
2023-03-29T16:38:40.910Z,13.23
2023-03-29T16:41:14.846Z,13.15
2023-03-29T16:43:42.826Z,13.07
2023-03-29T16:46:11.299Z,13.02
2023-03-29T16:48:39.465Z,12.95
2023-03-29T16:51:07.985Z,12.88
2023-03-29T16:53:35.804Z,12.81
2023-03-29T16:56:04.606Z,12.71
2023-03-29T16:58:33.890Z,12.64
2023-03-29T17:01:09.620Z,12.55
2023-03-29T17:03:38.321Z,12.48
2023-03-29T17:06:07.500Z,12.38
2023-03-29T17:08:35.921Z,12.30
2023-03-29T17:11:04.794Z,12.27
2023-03-29T17:13:34.485Z,12.23
2023-03-29T17:16:02.483Z,12.21
2023-03-29T17:18:30.837Z,12.20
2023-03-29T17:20:59.852Z,12.18
2023-03-29T17:23:27.628Z,12.19
2023-03-29T17:25:56.512Z,12.17
2023-03-29T17:28:24.919Z,12.17
2023-03-29T17:30:54.034Z,12.16
2023-03-29T17:33:26.075Z,12.16
2023-03-29T17:35:54.045Z,12.14
2023-03-29T17:38:21.816Z,12.15
2023-03-29T17:40:53.238Z,12.16
2023-03-29T17:43:21.272Z,12.15
2023-03-29T17:45:51.900Z,12.13
2023-03-29T17:48:21.566Z,12.13
2023-03-29T17:50:49.309Z,12.14
2023-03-29T17:53:17.223Z,12.13
2023-03-29T17:55:45.048Z,12.12
2023-03-29T17:58:12.839Z,12.12
2023-03-29T18:00:40.674Z,12.10
2023-03-29T18:03:08.492Z,12.10
2023-03-29T18:05:38.057Z,12.10
2023-03-29T18:08:05.826Z,12.10
2023-03-29T18:10:33.603Z,12.10
2023-03-29T18:13:01.582Z,12.08
2023-03-29T18:15:29.387Z,12.08
2023-03-29T18:17:57.217Z,12.08
2023-03-29T18:20:24.999Z,12.08
2023-03-29T18:22:54.094Z,12.07
2023-03-29T18:25:22.084Z,12.05
2023-03-29T18:27:50.039Z,12.03
2023-03-29T18:30:17.928Z,12.00
2023-03-29T18:32:46.067Z,11.98
2023-03-29T18:35:13.816Z,11.97
2023-03-29T18:37:41.564Z,11.95
2023-03-29T18:40:11.140Z,11.95
2023-03-29T18:42:38.886Z,11.94
2023-03-29T18:45:07.546Z,11.93
2023-03-29T18:47:35.533Z,11.91
2023-03-29T18:50:03.430Z,11.89
2023-03-29T18:52:31.188Z,11.86
2023-03-29T18:54:58.918Z,11.86
2023-03-29T18:57:28.056Z,11.86
2023-03-29T18:59:55.817Z,11.84
2023-03-29T19:02:23.631Z,11.84
2023-03-29T19:04:51.621Z,11.83
2023-03-29T19:07:20.568Z,11.83
2023-03-29T19:09:48.329Z,11.85
2023-03-29T19:12:16.033Z,11.85
2023-03-29T19:14:45.096Z,11.87
2023-03-29T19:17:12.985Z,11.88
2023-03-29T19:19:40.700Z,11.90
2023-03-29T19:22:08.470Z,11.89
2023-03-29T19:24:36.204Z,11.90
2023-03-29T19:27:04.132Z,11.91
2023-03-29T19:29:31.831Z,11.91
2023-03-29T19:32:01.008Z,11.90
2023-03-29T19:34:29.692Z,11.90
2023-03-29T19:36:58.444Z,11.93
2023-03-29T19:39:27.813Z,11.93
2023-03-29T19:41:55.691Z,11.96
2023-03-29T19:44:24.440Z,11.98
2023-03-29T19:46:52.634Z,11.99
2023-03-29T19:49:21.792Z,12.00
2023-03-29T19:51:49.504Z,12.02
2023-03-29T19:54:17.431Z,12.01
2023-03-29T19:56:45.425Z,12.03
2023-03-29T19:59:14.899Z,12.03
2023-03-29T20:01:51.188Z,12.04
2023-03-29T20:04:22.596Z,12.04
2023-03-29T20:06:50.550Z,12.04
2023-03-29T20:09:18.585Z,12.06
2023-03-29T20:11:46.755Z,12.07
2023-03-29T20:14:15.076Z,12.07
2023-03-29T20:16:44.010Z,12.07
2023-03-29T20:19:14.059Z,12.08
2023-03-29T20:21:43.852Z,12.09
2023-03-29T20:24:12.570Z,12.09
2023-03-29T20:26:40.306Z,12.09
2023-03-29T20:29:08.125Z,12.10
2023-03-29T20:31:36.043Z,12.11
2023-03-29T20:34:03.914Z,12.11
2023-03-29T20:36:32.007Z,12.10
2023-03-29T20:39:01.281Z,12.13
2023-03-29T20:41:29.041Z,12.13
2023-03-29T20:43:59.376Z,12.11
2023-03-29T20:46:33.259Z,12.13
2023-03-29T20:49:01.488Z,12.13
2023-03-29T20:51:31.782Z,12.13
2023-03-29T20:54:04.353Z,12.13
2023-03-29T20:56:34.340Z,12.12
2023-03-29T20:59:03.891Z,12.10
2023-03-29T21:01:31.734Z,12.07
2023-03-29T21:03:59.784Z,12.02
2023-03-29T21:06:27.868Z,11.97
2023-03-29T21:08:55.695Z,11.92
2023-03-29T21:11:24.841Z,11.85
2023-03-29T21:13:53.845Z,11.79
2023-03-29T21:16:21.699Z,11.72
2023-03-29T21:18:49.509Z,11.68
2023-03-29T21:21:17.394Z,11.62
2023-03-29T21:23:45.181Z,11.56
2023-03-29T21:26:13.199Z,11.49
2023-03-29T21:28:42.443Z,11.46
2023-03-29T21:31:10.835Z,11.42
2023-03-29T21:33:38.726Z,11.38
2023-03-29T21:36:08.201Z,11.34
2023-03-29T21:38:36.134Z,11.34
2023-03-29T21:41:04.138Z,11.30
2023-03-29T21:43:32.045Z,11.27
2023-03-29T21:46:01.283Z,11.23
2023-03-29T21:48:29.080Z,11.20
2023-03-29T21:50:56.891Z,11.17
2023-03-29T21:53:25.000Z,11.14
2023-03-29T21:55:53.636Z,11.11
2023-03-29T21:58:21.731Z,11.11
2023-03-29T22:00:49.924Z,11.09
2023-03-29T22:03:19.228Z,11.07
2023-03-29T22:05:57.123Z,11.05
2023-03-29T22:08:26.434Z,11.04
2023-03-29T22:10:56.759Z,11.04
2023-03-29T22:13:26.126Z,11.01
2023-03-29T22:15:58.612Z,11.00
2023-03-29T22:18:29.996Z,10.96
2023-03-29T22:20:58.098Z,10.94
2023-03-29T22:23:25.888Z,10.89
2023-03-29T22:25:53.643Z,10.83
2023-03-29T22:28:21.577Z,10.78
2023-03-29T22:30:49.494Z,10.71
2023-03-29T22:33:17.307Z,10.67
2023-03-29T22:35:46.562Z,10.61
2023-03-29T22:38:14.404Z,10.57
2023-03-29T22:40:42.296Z,10.56
2023-03-29T22:43:10.183Z,10.52
2023-03-29T22:45:38.029Z,10.52
2023-03-29T22:48:06.246Z,10.51
2023-03-29T22:50:34.113Z,10.52
2023-03-29T22:53:03.158Z,10.52
2023-03-29T22:55:31.015Z,10.52
2023-03-29T22:57:58.711Z,10.52
2023-03-29T23:00:26.438Z,10.53
2023-03-29T23:02:54.288Z,10.52
2023-03-29T23:05:22.094Z,10.50
2023-03-29T23:07:49.859Z,10.48
2023-03-29T23:10:19.211Z,10.47
2023-03-29T23:12:48.993Z,10.46
2023-03-29T23:15:17.121Z,10.42
2023-03-29T23:17:45.425Z,10.40
2023-03-29T23:20:13.821Z,10.37
2023-03-29T23:22:41.562Z,10.35
2023-03-29T23:25:10.018Z,10.33
2023-03-29T23:27:39.057Z,10.33
2023-03-29T23:30:09.561Z,10.34
2023-03-29T23:32:37.550Z,10.34
2023-03-29T23:35:06.077Z,10.32
2023-03-29T23:37:33.902Z,10.30
2023-03-29T23:40:01.654Z,10.29
2023-03-29T23:42:30.828Z,10.27
2023-03-29T23:45:00.105Z,10.25
2023-03-29T23:47:27.883Z,10.22
2023-03-29T23:49:55.888Z,10.22
2023-03-29T23:52:23.599Z,10.18
2023-03-29T23:54:51.319Z,10.16
2023-03-29T23:57:19.348Z,10.11
2023-03-29T23:59:47.148Z,10.08
